createdAt,value
2023-03-29T00:01:35.115Z,1.00
2023-03-29T00:04:04.547Z,0.90
2023-03-29T00:06:33.188Z,1.00
2023-03-29T00:09:01.699Z,1.05
2023-03-29T00:11:28.358Z,1.20
2023-03-29T00:13:54.985Z,1.10
2023-03-29T00:16:21.830Z,1.08
2023-03-29T00:18:48.651Z,1.00
2023-03-29T00:21:15.351Z,1.30
2023-03-29T00:23:41.849Z,1.05
2023-03-29T00:26:08.595Z,1.13
2023-03-29T00:28:35.613Z,0.90
2023-03-29T00:31:11.250Z,1.00
2023-03-29T00:33:38.064Z,0.90
2023-03-29T00:36:05.263Z,1.13
2023-03-29T00:38:32.089Z,1.00
2023-03-29T00:40:59.104Z,1.10
2023-03-29T00:43:25.901Z,0.90
2023-03-29T00:45:52.703Z,0.98
2023-03-29T00:48:27.976Z,1.20
2023-03-29T00:50:58.081Z,1.10
2023-03-29T00:53:35.993Z,1.00
2023-03-29T00:56:24.806Z,1.10
2023-03-29T00:58:59.223Z,0.82
2023-03-29T01:01:34.100Z,1.30
2023-03-29T01:04:08.610Z,1.17
2023-03-29T01:06:39.230Z,1.02
2023-03-29T01:09:09.328Z,1.10
2023-03-29T01:11:39.942Z,1.00
2023-03-29T01:14:19.162Z,0.90
2023-03-29T01:16:46.124Z,1.10
2023-03-29T01:19:16.277Z,0.90
2023-03-29T01:21:47.901Z,0.90
2023-03-29T01:24:44.477Z,0.98
2023-03-29T01:27:22.904Z,1.00
2023-03-29T01:30:00.299Z,1.00
2023-03-29T01:32:44.725Z,1.05
2023-03-29T01:35:16.400Z,1.10
2023-03-29T01:37:48.208Z,0.80
2023-03-29T01:40:14.825Z,1.10
2023-03-29T01:43:02.875Z,0.68
2023-03-29T01:45:35.744Z,0.80
2023-03-29T01:48:06.513Z,0.90
2023-03-29T01:51:08.516Z,0.93
2023-03-29T01:53:55.172Z,0.70
2023-03-29T01:56:24.866Z,0.77
2023-03-29T01:59:13.171Z,0.85
2023-03-29T02:01:43.726Z,0.90
2023-03-29T02:04:13.146Z,1.15
2023-03-29T02:06:40.948Z,0.90
2023-03-29T02:09:07.730Z,0.80
2023-03-29T02:11:36.067Z,1.00
2023-03-29T02:14:02.590Z,0.85
2023-03-29T02:16:29.120Z,0.80
2023-03-29T02:18:59.012Z,0.85
2023-03-29T02:21:37.170Z,0.65
2023-03-29T02:24:08.816Z,0.90
2023-03-29T02:26:36.164Z,0.98
2023-03-29T02:29:02.882Z,0.93
2023-03-29T02:31:35.823Z,0.90
2023-03-29T02:34:05.370Z,1.00
2023-03-29T02:36:41.528Z,0.80
2023-03-29T02:39:10.156Z,0.88
2023-03-29T02:41:38.099Z,0.90
2023-03-29T02:44:07.605Z,0.90
2023-03-29T02:46:34.716Z,0.70
2023-03-29T02:49:01.326Z,1.10
2023-03-29T02:51:33.242Z,0.90
2023-03-29T02:54:26.424Z,1.25
2023-03-29T02:57:00.356Z,0.73
2023-03-29T02:59:27.370Z,0.90
2023-03-29T03:01:53.973Z,0.90
2023-03-29T03:04:23.731Z,0.80
2023-03-29T03:06:50.462Z,0.90
2023-03-29T03:09:17.280Z,0.80
2023-03-29T03:11:43.821Z,0.90
2023-03-29T03:14:10.911Z,1.05
2023-03-29T03:16:37.516Z,0.73
2023-03-29T03:19:04.272Z,0.90
2023-03-29T03:21:30.967Z,0.77
2023-03-29T03:23:57.516Z,0.70
2023-03-29T03:26:24.989Z,0.75
2023-03-29T03:28:51.712Z,0.73
2023-03-29T03:31:19.598Z,0.90
2023-03-29T03:33:46.189Z,0.80
2023-03-29T03:36:12.845Z,0.65
2023-03-29T03:38:39.631Z,0.90
2023-03-29T03:41:09.489Z,0.70
2023-03-29T03:43:36.324Z,0.88
2023-03-29T03:46:03.033Z,0.80
2023-03-29T03:48:29.658Z,0.70
2023-03-29T03:50:58.395Z,0.70
2023-03-29T03:53:26.312Z,0.90
2023-03-29T03:55:55.919Z,0.70
2023-03-29T03:58:22.962Z,0.75
2023-03-29T04:00:50.445Z,0.63
2023-03-29T04:03:17.824Z,0.80
2023-03-29T04:05:45.804Z,0.77
2023-03-29T04:08:13.180Z,0.98
2023-03-29T04:10:42.870Z,0.80
2023-03-29T04:13:09.680Z,0.60
2023-03-29T04:15:39.262Z,0.60
2023-03-29T04:18:07.519Z,0.70
2023-03-29T04:20:34.551Z,1.00
2023-03-29T04:23:01.779Z,0.68
2023-03-29T04:25:28.473Z,0.90
2023-03-29T04:27:56.616Z,0.80
2023-03-29T04:30:23.333Z,0.98
2023-03-29T04:32:49.987Z,0.70
2023-03-29T04:35:16.616Z,0.90
2023-03-29T04:37:43.198Z,1.00
2023-03-29T04:40:14.373Z,0.75
2023-03-29T04:42:45.972Z,0.90
2023-03-29T04:45:19.332Z,0.80
2023-03-29T04:47:46.416Z,0.80
2023-03-29T04:50:21.364Z,0.80
2023-03-29T04:52:48.108Z,0.80
2023-03-29T04:55:14.618Z,0.82
2023-03-29T04:57:41.334Z,0.90
2023-03-29T05:00:15.136Z,0.80
2023-03-29T05:02:45.606Z,0.70
2023-03-29T05:05:13.248Z,1.10
2023-03-29T05:07:40.304Z,0.82
2023-03-29T05:10:07.477Z,1.00
2023-03-29T05:12:34.479Z,0.82
2023-03-29T05:15:01.258Z,1.10
2023-03-29T05:17:27.987Z,1.25
2023-03-29T05:19:55.134Z,0.80
2023-03-29T05:22:21.988Z,1.20
2023-03-29T05:24:48.650Z,0.80
2023-03-29T05:27:15.261Z,0.90
2023-03-29T05:29:41.872Z,0.80
2023-03-29T05:32:08.473Z,0.93
2023-03-29T05:34:35.551Z,0.80
2023-03-29T05:37:02.307Z,1.00
2023-03-29T05:39:29.042Z,0.70
2023-03-29T05:41:55.876Z,0.70
2023-03-29T05:44:22.400Z,0.90
2023-03-29T05:46:48.884Z,1.00
2023-03-29T05:49:15.403Z,0.90
2023-03-29T05:51:42.792Z,1.00
2023-03-29T05:54:09.320Z,0.82
2023-03-29T05:56:35.917Z,0.90
2023-03-29T05:59:02.562Z,0.80
2023-03-29T06:01:29.622Z,0.98
2023-03-29T06:03:57.440Z,0.88
2023-03-29T06:06:24.052Z,0.90
2023-03-29T06:08:50.684Z,1.15
2023-03-29T06:11:17.684Z,1.08
2023-03-29T06:13:44.286Z,0.88
2023-03-29T06:16:11.243Z,1.05
2023-03-29T06:18:41.230Z,0.90
2023-03-29T06:21:09.413Z,1.02
2023-03-29T06:23:38.139Z,1.00
2023-03-29T06:26:05.851Z,0.90
2023-03-29T06:28:33.011Z,1.02
2023-03-29T06:31:02.734Z,1.08
2023-03-29T06:33:30.919Z,1.00
2023-03-29T06:35:57.721Z,0.90
2023-03-29T06:38:26.751Z,0.90
2023-03-29T06:41:00.691Z,0.90
2023-03-29T06:43:27.320Z,0.98
2023-03-29T06:45:54.297Z,0.98
2023-03-29T06:48:21.330Z,1.00
2023-03-29T06:50:48.482Z,1.20
2023-03-29T06:53:18.461Z,1.55
2023-03-29T06:55:45.723Z,1.42
2023-03-29T06:58:12.404Z,1.80
2023-03-29T07:00:39.389Z,1.10
2023-03-29T07:03:08.146Z,1.27
2023-03-29T07:05:36.524Z,1.40
2023-03-29T07:08:05.875Z,1.60
2023-03-29T07:10:38.268Z,1.73
2023-03-29T07:13:09.031Z,1.42
2023-03-29T07:15:36.096Z,1.42
2023-03-29T07:18:04.827Z,1.50
2023-03-29T07:20:33.718Z,1.40
2023-03-29T07:23:00.308Z,1.50
2023-03-29T07:25:27.732Z,1.33
2023-03-29T07:27:54.300Z,1.30
2023-03-29T07:30:24.036Z,1.30
2023-03-29T07:32:51.307Z,1.48
2023-03-29T07:35:18.113Z,1.40
2023-03-29T07:37:45.433Z,1.20
2023-03-29T07:40:23.918Z,1.20
2023-03-29T07:42:55.207Z,1.30
2023-03-29T07:45:26.452Z,1.23
2023-03-29T07:47:59.516Z,1.10
2023-03-29T07:50:32.463Z,1.42
2023-03-29T07:53:00.875Z,1.40
2023-03-29T07:55:27.704Z,1.63
2023-03-29T07:57:54.462Z,1.58
2023-03-29T08:00:22.311Z,1.95
2023-03-29T08:02:50.861Z,1.50
2023-03-29T08:05:23.430Z,2.10
2023-03-29T08:07:56.148Z,1.83
2023-03-29T08:10:22.848Z,1.83
2023-03-29T08:12:50.301Z,1.67
2023-03-29T08:15:19.095Z,1.70
2023-03-29T08:17:45.842Z,1.70
2023-03-29T08:20:15.093Z,1.90
2023-03-29T08:22:42.242Z,1.77
2023-03-29T08:25:09.640Z,1.63
2023-03-29T08:27:37.501Z,1.92
2023-03-29T08:30:06.775Z,2.15
2023-03-29T08:32:33.404Z,1.85
2023-03-29T08:35:03.804Z,1.42
2023-03-29T08:37:31.782Z,1.50
2023-03-29T08:39:58.707Z,1.30
2023-03-29T08:42:52.881Z,1.50
2023-03-29T08:45:56.799Z,1.30
2023-03-29T08:48:29.937Z,1.50
2023-03-29T08:51:03.997Z,1.60
2023-03-29T08:53:44.212Z,1.60
2023-03-29T08:56:18.586Z,1.75
2023-03-29T08:58:46.612Z,1.50
2023-03-29T09:01:13.316Z,1.40
2023-03-29T09:04:09.849Z,1.40
2023-03-29T09:06:39.237Z,1.40
2023-03-29T09:09:06.584Z,1.38
2023-03-29T09:12:04.246Z,1.40
2023-03-29T09:14:56.131Z,1.38
2023-03-29T09:17:26.414Z,1.20
2023-03-29T09:20:26.205Z,1.70
2023-03-29T09:23:18.311Z,1.52
2023-03-29T09:26:08.315Z,1.20
2023-03-29T09:28:38.358Z,1.23
2023-03-29T09:31:16.778Z,1.02
2023-03-29T09:33:52.205Z,1.20
2023-03-29T09:36:37.563Z,1.13
2023-03-29T09:39:05.235Z,1.25
2023-03-29T09:41:38.259Z,1.30
2023-03-29T09:44:28.224Z,1.27
2023-03-29T09:47:24.981Z,1.02
2023-03-29T09:49:57.198Z,1.10
2023-03-29T09:52:23.861Z,1.27
2023-03-29T09:54:50.736Z,1.02
2023-03-29T09:57:18.297Z,1.50
2023-03-29T09:59:46.306Z,1.00
2023-03-29T10:02:14.117Z,1.15
2023-03-29T10:04:45.721Z,1.30
2023-03-29T10:07:20.623Z,1.10
2023-03-29T10:09:50.582Z,1.65
2023-03-29T10:12:17.551Z,1.40
2023-03-29T10:14:53.949Z,1.38
2023-03-29T10:17:25.802Z,1.20
2023-03-29T10:19:53.435Z,1.00
2023-03-29T10:22:23.711Z,1.10
2023-03-29T10:24:52.651Z,1.20
2023-03-29T10:27:24.545Z,1.30
2023-03-29T10:32:28.759Z,1.00
2023-03-29T10:34:55.601Z,1.25
2023-03-29T10:37:23.570Z,1.48
2023-03-29T10:39:50.589Z,1.30
2023-03-29T10:42:18.686Z,1.52
2023-03-29T10:44:57.304Z,1.48
2023-03-29T10:47:24.652Z,1.40
2023-03-29T10:49:59.625Z,1.40
2023-03-29T10:52:26.633Z,1.30
2023-03-29T10:54:55.069Z,1.60
2023-03-29T10:57:45.306Z,1.50
2023-03-29T11:00:18.112Z,1.38
2023-03-29T11:03:17.058Z,1.52
2023-03-29T11:06:23.682Z,1.30
2023-03-29T11:08:57.812Z,1.48
2023-03-29T11:11:30.102Z,1.38
2023-03-29T11:14:02.648Z,1.42
2023-03-29T11:16:56.852Z,1.02
2023-03-29T11:19:43.369Z,1.50
2023-03-29T11:22:49.623Z,1.50
2023-03-29T11:25:38.501Z,1.20
2023-03-29T11:28:18.296Z,1.20
2023-03-29T11:31:10.269Z,1.05
2023-03-29T11:33:55.687Z,1.38
2023-03-29T11:37:12.404Z,0.90
2023-03-29T11:39:54.896Z,1.10
2023-03-29T11:42:25.322Z,0.90
2023-03-29T11:44:57.590Z,1.50
2023-03-29T11:47:37.355Z,1.10
2023-03-29T11:50:23.949Z,1.00
2023-03-29T11:53:16.127Z,1.15
2023-03-29T11:58:27.019Z,1.00
2023-03-29T12:01:17.132Z,0.80
2023-03-29T12:03:57.080Z,1.10
2023-03-29T12:06:39.288Z,1.30
2023-03-29T12:09:16.242Z,0.98
2023-03-29T12:11:50.360Z,1.00
2023-03-29T12:14:24.454Z,1.02
2023-03-29T12:17:04.668Z,1.00
2023-03-29T12:19:41.783Z,0.73
2023-03-29T12:22:10.074Z,0.80
2023-03-29T12:24:40.428Z,0.90
2023-03-29T12:27:19.860Z,0.70
2023-03-29T12:30:14.637Z,0.80
2023-03-29T12:32:59.528Z,0.85
2023-03-29T12:35:29.171Z,0.60
2023-03-29T12:38:17.095Z,1.00
2023-03-29T12:40:48.770Z,0.65
2023-03-29T12:43:24.449Z,0.88
2023-03-29T12:45:57.085Z,0.98
2023-03-29T12:48:27.685Z,0.75
2023-03-29T12:51:07.698Z,1.25
2023-03-29T12:53:36.500Z,0.63
2023-03-29T12:56:03.720Z,0.80
2023-03-29T12:58:30.682Z,0.70
2023-03-29T13:01:07.318Z,0.68
2023-03-29T13:03:40.126Z,0.65
2023-03-29T13:06:10.487Z,0.80
2023-03-29T13:08:46.050Z,0.60
2023-03-29T13:11:26.086Z,0.80
2023-03-29T13:13:53.326Z,0.82
2023-03-29T13:16:28.673Z,0.90
2023-03-29T13:19:36.750Z,0.70
2023-03-29T13:22:12.407Z,0.80
2023-03-29T13:25:06.061Z,0.70
2023-03-29T13:27:45.419Z,0.98
2023-03-29T13:30:26.109Z,1.05
2023-03-29T13:33:07.501Z,0.60
2023-03-29T13:35:51.224Z,0.70
2023-03-29T13:38:31.819Z,0.80
2023-03-29T13:41:07.253Z,0.90
2023-03-29T13:43:37.644Z,0.57
2023-03-29T13:46:06.861Z,0.60
2023-03-29T13:48:36.600Z,0.68
2023-03-29T13:51:18.529Z,0.80
2023-03-29T13:56:20.219Z,0.73
2023-03-29T13:59:03.938Z,0.90
2023-03-29T14:01:53.717Z,1.00
2023-03-29T14:04:26.756Z,0.80
2023-03-29T14:06:56.164Z,0.80
2023-03-29T14:09:28.740Z,0.70
2023-03-29T14:11:55.837Z,0.70
2023-03-29T14:14:26.872Z,0.88
2023-03-29T14:16:55.878Z,0.75
2023-03-29T14:19:34.588Z,0.52
2023-03-29T14:22:02.600Z,0.90
2023-03-29T14:24:48.045Z,1.10
2023-03-29T14:27:16.568Z,0.75
2023-03-29T14:29:47.533Z,0.98
2023-03-29T14:32:18.774Z,1.03
2023-03-29T14:34:49.822Z,0.90
2023-03-29T14:37:21.929Z,0.70
2023-03-29T14:39:50.591Z,0.82
2023-03-29T14:42:25.295Z,0.70
2023-03-29T14:44:58.020Z,0.70
2023-03-29T14:47:28.516Z,0.77
2023-03-29T14:49:58.859Z,0.63
2023-03-29T14:52:26.037Z,0.80
2023-03-29T14:54:56.582Z,0.80
2023-03-29T14:57:26.411Z,0.65
2023-03-29T15:00:09.296Z,0.90
2023-03-29T15:02:35.861Z,0.75
2023-03-29T15:05:05.513Z,0.88
2023-03-29T15:07:34.915Z,0.88
2023-03-29T15:10:03.092Z,0.85
2023-03-29T15:12:30.768Z,0.98
2023-03-29T15:14:58.136Z,0.68
2023-03-29T15:17:49.588Z,0.80
2023-03-29T15:20:26.418Z,0.80
2023-03-29T15:22:59.359Z,0.60
2023-03-29T15:25:34.539Z,0.85
2023-03-29T15:28:01.858Z,0.70
2023-03-29T15:30:34.504Z,1.00
2023-03-29T15:33:15.619Z,0.75
2023-03-29T15:35:43.121Z,0.70
2023-03-29T15:38:12.491Z,0.82
2023-03-29T15:40:39.159Z,0.70
2023-03-29T15:43:05.989Z,0.70
2023-03-29T15:45:33.073Z,0.90
2023-03-29T15:48:04.798Z,0.80
2023-03-29T15:53:08.598Z,0.80
2023-03-29T15:55:44.661Z,0.70
2023-03-29T15:58:20.577Z,0.80
2023-03-29T16:00:54.023Z,0.57
2023-03-29T16:03:22.412Z,0.90
2023-03-29T16:05:49.141Z,0.93
2023-03-29T16:08:15.733Z,0.80
2023-03-29T16:10:44.002Z,0.90
2023-03-29T16:13:13.409Z,0.68
2023-03-29T16:15:40.980Z,0.80
2023-03-29T16:18:07.549Z,0.60
2023-03-29T16:20:34.150Z,0.82
2023-03-29T16:23:01.039Z,0.95
2023-03-29T16:25:27.880Z,0.63
2023-03-29T16:27:54.467Z,0.63
2023-03-29T16:30:21.037Z,0.73
2023-03-29T16:32:47.634Z,0.60
2023-03-29T16:35:37.004Z,0.73
2023-03-29T16:38:04.376Z,0.80
2023-03-29T16:40:30.945Z,0.70
2023-03-29T16:42:57.513Z,1.20
2023-03-29T16:45:24.050Z,1.27
2023-03-29T16:47:51.167Z,1.20
2023-03-29T16:50:19.749Z,1.08
2023-03-29T16:52:48.529Z,1.20
2023-03-29T16:55:18.939Z,1.15
2023-03-29T16:57:47.372Z,1.00
2023-03-29T17:00:18.669Z,1.00
2023-03-29T17:02:45.949Z,1.50
2023-03-29T17:05:12.777Z,1.00
2023-03-29T17:07:39.902Z,1.10
2023-03-29T17:10:08.266Z,0.90
2023-03-29T17:12:35.114Z,1.00
2023-03-29T17:15:01.659Z,0.70
2023-03-29T17:17:28.380Z,0.80
2023-03-29T17:19:56.693Z,0.90
2023-03-29T17:22:24.768Z,0.98
2023-03-29T17:24:51.622Z,0.80
2023-03-29T17:27:18.543Z,0.70
2023-03-29T17:29:45.245Z,1.20
2023-03-29T17:32:11.783Z,0.98
2023-03-29T17:34:38.713Z,0.82
2023-03-29T17:37:05.334Z,0.70
2023-03-29T17:39:32.131Z,0.90
2023-03-29T17:41:58.661Z,0.90
2023-03-29T17:44:25.664Z,1.00
2023-03-29T17:46:52.230Z,1.52
2023-03-29T17:49:18.909Z,0.90
2023-03-29T17:51:46.301Z,1.00
2023-03-29T17:54:12.863Z,1.02
2023-03-29T17:56:39.453Z,0.90
2023-03-29T17:59:05.976Z,1.00
2023-03-29T18:01:32.809Z,1.10
2023-03-29T18:03:59.485Z,1.00
2023-03-29T18:06:26.045Z,1.00
2023-03-29T18:08:54.313Z,1.13
2023-03-29T18:11:22.902Z,1.00
2023-03-29T18:13:50.863Z,0.90
2023-03-29T18:16:18.342Z,0.90
2023-03-29T18:18:46.334Z,0.90
2023-03-29T18:21:14.608Z,1.00
2023-03-29T18:23:44.944Z,1.23
2023-03-29T18:26:12.397Z,0.80
2023-03-29T18:28:40.562Z,0.80
2023-03-29T18:31:07.897Z,0.95
2023-03-29T18:33:37.224Z,1.00
2023-03-29T18:36:08.440Z,1.40
2023-03-29T18:38:40.411Z,1.00
2023-03-29T18:41:08.617Z,1.15
2023-03-29T18:43:35.477Z,0.80
2023-03-29T18:46:02.246Z,0.98
2023-03-29T18:48:29.878Z,0.90
2023-03-29T18:50:57.257Z,1.48
2023-03-29T18:53:24.148Z,0.90
2023-03-29T18:55:50.744Z,0.80
2023-03-29T18:58:20.417Z,1.00
2023-03-29T19:00:48.169Z,1.02
2023-03-29T19:03:14.840Z,1.15
2023-03-29T19:05:43.856Z,0.90
2023-03-29T19:08:10.489Z,1.13
2023-03-29T19:10:38.606Z,1.20
2023-03-29T19:13:05.550Z,0.88
2023-03-29T19:15:33.971Z,0.75
2023-03-29T19:18:01.010Z,0.73
2023-03-29T19:20:27.777Z,0.90
2023-03-29T19:22:54.398Z,1.10
2023-03-29T19:25:21.059Z,0.88
2023-03-29T19:27:48.044Z,1.15
2023-03-29T19:30:14.978Z,1.58
2023-03-29T19:32:41.615Z,0.85
2023-03-29T19:35:09.651Z,1.17
2023-03-29T19:37:36.563Z,1.02
2023-03-29T19:40:06.562Z,1.13
2023-03-29T19:42:40.306Z,1.10
2023-03-29T19:45:08.312Z,0.85
2023-03-29T19:47:35.788Z,0.70
2023-03-29T19:50:04.702Z,0.88
2023-03-29T19:52:33.814Z,1.00
2023-03-29T19:55:00.544Z,1.17
2023-03-29T19:57:28.293Z,1.10
2023-03-29T19:59:54.900Z,0.85
2023-03-29T20:02:21.466Z,0.93
2023-03-29T20:04:48.022Z,0.80
2023-03-29T20:07:14.518Z,1.10
2023-03-29T20:09:44.641Z,1.00
2023-03-29T20:12:11.874Z,1.25
2023-03-29T20:14:40.257Z,1.20
2023-03-29T20:17:07.420Z,1.10
2023-03-29T20:19:36.629Z,1.10
2023-03-29T20:22:04.022Z,1.08
2023-03-29T20:24:32.649Z,1.10
2023-03-29T20:26:59.403Z,1.00
2023-03-29T20:29:25.939Z,1.10
2023-03-29T20:31:53.159Z,1.20
2023-03-29T20:34:20.229Z,0.88
2023-03-29T20:36:47.033Z,1.10
2023-03-29T20:39:17.871Z,0.80
2023-03-29T20:41:47.639Z,1.00
2023-03-29T20:44:16.728Z,1.02
2023-03-29T20:46:54.603Z,0.88
2023-03-29T20:49:26.531Z,0.90
2023-03-29T20:54:26.205Z,1.00
2023-03-29T20:56:54.778Z,0.88
2023-03-29T20:59:22.789Z,0.90
2023-03-29T21:01:50.324Z,0.95
2023-03-29T21:04:17.001Z,1.10
2023-03-29T21:06:45.654Z,1.27
2023-03-29T21:09:13.678Z,1.10
2023-03-29T21:11:40.897Z,1.45
2023-03-29T21:14:07.429Z,1.00
2023-03-29T21:16:33.986Z,1.02
2023-03-29T21:19:00.766Z,0.95
2023-03-29T21:21:27.357Z,1.38
2023-03-29T21:23:53.877Z,1.17
2023-03-29T21:26:20.446Z,1.00
2023-03-29T21:28:48.658Z,1.10
2023-03-29T21:31:15.320Z,1.40
2023-03-29T21:33:41.833Z,1.27
2023-03-29T21:36:08.659Z,1.00
2023-03-29T21:38:35.527Z,1.10
2023-03-29T21:41:03.209Z,1.00
2023-03-29T21:43:30.021Z,1.83
2023-03-29T21:45:57.622Z,1.00
2023-03-29T21:48:24.184Z,1.00
2023-03-29T21:50:51.001Z,1.30
2023-03-29T21:53:18.415Z,0.98
2023-03-29T21:55:44.988Z,1.02
2023-03-29T21:58:11.493Z,1.08
2023-03-29T22:00:38.061Z,0.90
2023-03-29T22:03:04.673Z,1.42
2023-03-29T22:05:31.260Z,0.90
2023-03-29T22:07:58.710Z,1.15
2023-03-29T22:10:25.592Z,1.00
2023-03-29T22:12:52.611Z,1.20
2023-03-29T22:15:22.813Z,1.20
2023-03-29T22:17:50.482Z,1.10
2023-03-29T22:20:18.498Z,1.40
2023-03-29T22:22:49.534Z,1.17
2023-03-29T22:25:17.676Z,1.50
2023-03-29T22:27:45.920Z,1.30
2023-03-29T22:30:14.104Z,1.40
2023-03-29T22:32:42.443Z,1.70
2023-03-29T22:35:12.457Z,1.58
2023-03-29T22:37:42.965Z,1.15
2023-03-29T22:40:12.064Z,1.52
2023-03-29T22:42:38.729Z,1.27
2023-03-29T22:45:06.560Z,1.40
2023-03-29T22:47:33.436Z,0.90
2023-03-29T22:49:59.954Z,1.05
2023-03-29T22:52:26.640Z,1.30
2023-03-29T22:54:53.214Z,2.03
2023-03-29T22:57:19.846Z,1.70
2023-03-29T22:59:46.818Z,1.42
2023-03-29T23:02:13.336Z,1.60
2023-03-29T23:04:40.032Z,1.85
2023-03-29T23:07:06.683Z,1.60
2023-03-29T23:09:33.410Z,1.60
2023-03-29T23:12:01.120Z,1.50
2023-03-29T23:14:27.895Z,1.50
2023-03-29T23:16:54.495Z,1.48
2023-03-29T23:19:21.066Z,1.50
2023-03-29T23:21:47.544Z,1.30
2023-03-29T23:24:18.841Z,1.45
2023-03-29T23:26:45.896Z,1.60
2023-03-29T23:29:15.375Z,1.38
2023-03-29T23:31:41.992Z,1.35
2023-03-29T23:34:09.320Z,1.60
2023-03-29T23:36:35.915Z,1.13
2023-03-29T23:39:02.446Z,1.48
2023-03-29T23:41:30.482Z,1.50
2023-03-29T23:43:57.747Z,1.55
2023-03-29T23:46:24.675Z,1.30
2023-03-29T23:48:51.445Z,1.35
2023-03-29T23:51:18.895Z,1.55
2023-03-29T23:53:46.567Z,1.55
2023-03-29T23:56:13.218Z,1.48
2023-03-29T23:58:39.781Z,1.60
